createdAt,value
2016-11-19T15:15:35.535Z,8.38
2016-11-19T15:16:35.489Z,8.37
2016-11-19T15:17:35.487Z,8.37
2016-11-19T15:18:35.475Z,8.34
2016-11-19T15:19:35.467Z,8.34
2016-11-19T15:20:35.467Z,8.41
2016-11-19T15:21:35.461Z,8.38
2016-11-19T15:22:35.457Z,8.44
2016-11-19T15:23:35.450Z,8.44
2016-11-19T15:24:35.468Z,8.42
2016-11-19T15:25:35.447Z,8.41
2016-11-19T15:26:35.447Z,8.44
2016-11-19T15:27:35.442Z,8.52
2016-11-19T15:28:35.428Z,8.38
2016-11-19T15:29:35.458Z,8.41
2016-11-19T15:30:35.474Z,8.49
2016-11-19T15:31:35.443Z,8.42
2016-11-19T15:32:35.416Z,8.42
2016-11-19T15:33:35.440Z,8.36
2016-11-19T15:34:35.404Z,8.46
2016-11-19T15:35:35.399Z,8.36
2016-11-19T15:36:35.394Z,8.44
2016-11-19T15:37:35.706Z,8.44
2016-11-19T15:38:35.387Z,8.46
2016-11-19T15:39:35.389Z,8.45
2016-11-19T15:40:35.384Z,8.42
2016-11-19T15:41:35.388Z,8.38
2016-11-19T15:42:35.779Z,8.38
2016-11-19T15:43:35.365Z,8.42
2016-11-19T15:44:35.373Z,8.38
2016-11-19T15:45:36.550Z,8.28
2016-11-19T15:46:35.355Z,8.33
2016-11-19T15:47:35.348Z,8.33
2016-11-19T15:48:35.343Z,8.3
2016-11-19T15:49:35.340Z,8.3
2016-11-19T15:50:35.340Z,8.33
2016-11-19T15:51:35.338Z,8.19
2016-11-19T15:52:35.327Z,8.24
2016-11-19T15:53:35.639Z,8.19
2016-11-19T15:54:35.321Z,8.16
2016-11-19T15:55:35.326Z,8.19
2016-11-19T15:56:35.311Z,8.16
2016-11-19T15:57:35.310Z,8.01
2016-11-19T15:58:35.310Z,8.05
2016-11-19T15:59:35.298Z,8.01
2016-11-19T16:00:36.346Z,7.97
2016-11-19T16:01:35.291Z,7.97
2016-11-19T16:02:35.549Z,7.93
2016-11-19T16:03:35.286Z,7.93
2016-11-19T16:04:36.560Z,7.83
2016-11-19T16:05:35.880Z,7.83
2016-11-19T16:06:35.271Z,7.85
2016-11-19T16:07:35.271Z,7.83
2016-11-19T16:08:35.272Z,7.7
2016-11-19T16:09:35.498Z,7.69
2016-11-19T16:10:35.259Z,7.82
2016-11-19T16:11:35.280Z,7.82
2016-11-19T16:12:35.262Z,7.7
2016-11-19T16:13:35.237Z,7.7
2016-11-19T16:14:35.248Z,7.56
2016-11-19T16:15:35.477Z,7.58
2016-11-19T16:16:35.223Z,7.6
2016-11-19T16:17:35.221Z,7.54
2016-11-19T16:18:35.208Z,7.51
2016-11-19T16:19:35.208Z,7.56
2016-11-19T16:20:35.200Z,7.56
2016-11-19T16:21:35.209Z,7.43
2016-11-19T16:22:35.198Z,7.47
2016-11-19T16:23:35.199Z,7.42
2016-11-19T16:24:35.205Z,7.39
2016-11-19T16:25:35.178Z,7.38
2016-11-19T16:26:35.168Z,7.38
2016-11-19T16:27:35.475Z,7.29
2016-11-19T16:28:35.159Z,7.32
2016-11-19T16:29:35.155Z,7.21
2016-11-19T16:30:35.201Z,7.13
2016-11-19T16:31:35.146Z,7.02
2016-11-19T16:32:35.138Z,7.07
2016-11-19T16:33:35.145Z,6.99
2016-11-19T16:34:35.137Z,6.87
2016-11-19T16:35:35.136Z,6.89
2016-11-19T16:36:35.121Z,6.88
2016-11-19T16:37:35.434Z,6.89
2016-11-19T16:38:35.108Z,6.88
2016-11-19T16:39:35.097Z,6.87
2016-11-19T16:40:35.093Z,6.89
2016-11-19T16:41:35.092Z,6.88
2016-11-19T16:42:35.082Z,6.88
2016-11-19T16:43:35.077Z,6.92
2016-11-19T16:44:35.077Z,6.92
2016-11-19T16:45:35.318Z,6.88
2016-11-19T16:46:35.056Z,6.96
2016-11-19T16:47:35.055Z,6.96
2016-11-19T16:48:35.107Z,6.92
2016-11-19T16:49:35.369Z,6.95
2016-11-19T16:50:35.040Z,6.92
2016-11-19T16:51:35.043Z,6.85
2016-11-19T16:52:35.029Z,6.89
2016-11-19T16:53:35.035Z,6.89
2016-11-19T16:54:35.018Z,6.82
2016-11-19T16:55:35.036Z,6.81
2016-11-19T16:56:35.011Z,6.74
2016-11-19T16:57:35.003Z,6.64
2016-11-19T16:58:35.000Z,6.7
2016-11-19T16:59:34.994Z,6.66
2016-11-19T17:00:34.988Z,6.54
2016-11-19T17:01:34.988Z,6.6
2016-11-19T17:02:34.977Z,6.51
2016-11-19T17:03:35.011Z,6.48
2016-11-19T17:04:34.959Z,6.42
2016-11-19T17:05:35.219Z,6.49
2016-11-19T17:06:34.948Z,6.45
2016-11-19T17:07:34.953Z,6.49
2016-11-19T17:08:34.945Z,6.46
2016-11-19T17:09:34.942Z,6.48
2016-11-19T17:10:34.925Z,6.49
2016-11-19T17:11:34.934Z,6.48
2016-11-19T17:12:34.927Z,6.45
2016-11-19T17:13:34.923Z,6.51
2016-11-19T17:14:34.907Z,6.49
2016-11-19T17:15:34.900Z,6.38
2016-11-19T17:16:34.893Z,6.31
2016-11-19T17:17:34.922Z,6.42
2016-11-19T17:18:34.890Z,6.38
2016-11-19T17:19:34.883Z,6.24
2016-11-19T17:20:34.875Z,6.28
2016-11-19T17:21:34.880Z,6.26
2016-11-19T17:22:34.858Z,6.17
2016-11-19T17:23:34.861Z,6.09
2016-11-19T17:24:35.095Z,6.07
2016-11-19T17:25:34.840Z,6.07
2016-11-19T17:26:34.836Z,5.97
2016-11-19T17:27:34.834Z,5.93
2016-11-19T17:28:34.832Z,5.97
2016-11-19T17:29:34.821Z,5.87
2016-11-19T17:30:34.811Z,5.93
2016-11-19T17:31:34.813Z,5.9
2016-11-19T17:32:34.804Z,5.87
2016-11-19T17:33:34.798Z,5.82
2016-11-19T17:35:00.884Z,5.82
2016-11-19T17:35:34.787Z,5.82
2016-11-19T17:36:34.784Z,5.8
2016-11-19T17:37:34.777Z,5.64
2016-11-19T17:38:34.762Z,5.75
2016-11-19T17:39:34.754Z,5.69
2016-11-19T17:40:34.753Z,5.71
2016-11-19T17:41:34.752Z,5.79
2016-11-19T17:42:34.765Z,5.75
2016-11-19T17:43:34.755Z,5.71
2016-11-19T17:44:34.758Z,5.66
2016-11-19T17:45:34.717Z,5.66
2016-11-19T17:46:34.720Z,5.72
2016-11-19T17:47:34.716Z,5.66
2016-11-19T17:48:34.701Z,5.71
2016-11-19T17:49:34.712Z,5.68
2016-11-19T17:50:34.699Z,5.64
2016-11-19T17:51:34.688Z,5.68
2016-11-19T17:52:34.684Z,5.64
2016-11-19T17:53:34.675Z,5.56
2016-11-19T17:54:34.676Z,5.61
2016-11-19T17:55:34.668Z,5.59
2016-11-19T17:56:34.663Z,5.5
2016-11-19T17:57:34.651Z,5.5
2016-11-19T17:58:34.653Z,5.61
2016-11-19T17:59:34.629Z,5.53
2016-11-19T18:00:34.637Z,5.47
2016-11-19T18:01:34.619Z,5.43
2016-11-19T18:02:34.619Z,5.41
2016-11-19T18:03:34.618Z,5.36
2016-11-19T18:04:34.610Z,5.29
2016-11-19T18:05:34.607Z,5.33
2016-11-19T18:06:34.597Z,5.39
2016-11-19T18:07:34.591Z,5.44
2016-11-19T18:08:34.578Z,5.38
2016-11-19T18:09:34.581Z,5.3
2016-11-19T18:10:34.806Z,5.35
2016-11-19T18:11:34.553Z,5.3
2016-11-19T18:12:34.550Z,5.28
2016-11-19T18:13:34.553Z,5.26
2016-11-19T18:14:34.543Z,5.29
2016-11-19T18:15:34.531Z,5.25
2016-11-19T18:16:34.522Z,5.29
2016-11-19T18:17:34.521Z,5.26
2016-11-19T18:18:34.508Z,5.32
2016-11-19T18:19:34.501Z,5.28
2016-11-19T18:20:34.505Z,5.29
2016-11-19T18:21:34.488Z,5.25
2016-11-19T18:22:34.483Z,5.32
2016-11-19T18:23:34.474Z,5.23
2016-11-19T18:24:34.473Z,5.25
2016-11-19T18:25:34.461Z,5.28
2016-11-19T18:26:34.468Z,5.25
2016-11-19T18:27:34.454Z,5.25
2016-11-19T18:28:34.445Z,5.21
2016-11-19T18:29:34.439Z,5.18
2016-11-19T18:30:34.440Z,5.14
2016-11-19T18:31:34.440Z,5.15
2016-11-19T18:32:34.427Z,5.17
2016-11-19T18:33:34.430Z,5.11
2016-11-19T18:34:34.441Z,5.08
2016-11-19T18:35:34.396Z,5.07
2016-11-19T18:36:34.396Z,5.11
2016-11-19T18:37:34.392Z,5.1
2016-11-19T18:38:34.383Z,5.1
2016-11-19T18:39:34.367Z,5.14
2016-11-19T18:40:34.476Z,5.07
2016-11-19T18:41:34.356Z,5.12
2016-11-19T18:42:34.354Z,5.1
2016-11-19T18:43:34.336Z,5
2016-11-19T18:44:34.344Z,5.08
2016-11-19T18:45:34.635Z,4.97
2016-11-19T18:46:34.329Z,5.1
2016-11-19T18:47:34.315Z,5.04
2016-11-19T18:48:34.310Z,4.99
2016-11-19T18:49:34.306Z,5.08
2016-11-19T18:50:34.302Z,5
2016-11-19T18:51:34.287Z,5.04
2016-11-19T18:52:34.278Z,5.02
2016-11-19T18:53:34.283Z,5.05
2016-11-19T18:54:34.267Z,5.04
2016-11-19T18:55:34.270Z,5
2016-11-19T18:56:34.269Z,5.02
2016-11-19T18:57:34.241Z,5.08
2016-11-19T18:58:34.436Z,5.05
2016-11-19T18:59:34.243Z,5.1
2016-11-19T19:00:34.223Z,5.11
2016-11-19T19:01:34.269Z,5.08
2016-11-19T19:02:34.206Z,5.1
2016-11-19T19:03:34.206Z,5.1
2016-11-19T19:04:34.197Z,5.04
2016-11-19T19:05:34.185Z,5.05
2016-11-19T19:06:34.181Z,5.1
2016-11-19T19:07:34.174Z,5.11
2016-11-19T19:08:34.173Z,5.12
2016-11-19T19:09:34.162Z,5.11
2016-11-19T19:10:34.149Z,5.11
2016-11-19T19:11:34.144Z,5.07
2016-11-19T19:12:34.137Z,5.14
2016-11-19T19:13:34.132Z,5.07
2016-11-19T19:14:34.123Z,5.1
2016-11-19T19:15:34.116Z,5.14
2016-11-19T19:16:34.114Z,5.21
2016-11-19T19:17:34.103Z,5.26
2016-11-19T19:18:34.093Z,5.25
2016-11-19T19:19:34.094Z,5.29
2016-11-19T19:20:34.083Z,5.26
2016-11-19T19:21:34.083Z,5.25
2016-11-19T19:22:34.078Z,5.25
2016-11-19T19:23:34.074Z,5.2
2016-11-19T19:24:34.055Z,5.25
2016-11-19T19:25:34.050Z,5.28
2016-11-19T19:26:34.046Z,5.2
2016-11-19T19:27:34.034Z,5.15
2016-11-19T19:28:34.028Z,5.21
2016-11-19T19:29:34.023Z,5.14
2016-11-19T19:30:34.019Z,5.28
2016-11-19T19:31:34.041Z,5.3
2016-11-19T19:32:34.005Z,5.26
2016-11-19T19:33:33.993Z,5.23
2016-11-19T19:34:33.987Z,5.3
2016-11-19T19:35:33.982Z,5.25
2016-11-19T19:36:33.973Z,5.3
2016-11-19T19:37:34.282Z,5.35
2016-11-19T19:38:33.960Z,5.36
2016-11-19T19:39:33.956Z,5.28
2016-11-19T19:40:33.948Z,5.35
2016-11-19T19:41:33.943Z,5.38
2016-11-19T19:42:33.955Z,5.38
2016-11-19T19:43:33.929Z,5.35
2016-11-19T19:44:34.232Z,5.38
2016-11-19T19:45:33.918Z,5.41
2016-11-19T19:46:33.913Z,5.41
2016-11-19T19:47:33.897Z,5.41
2016-11-19T19:48:33.897Z,5.38
2016-11-19T19:49:34.205Z,5.33
2016-11-19T19:50:33.884Z,5.38
2016-11-19T19:51:33.877Z,5.38
2016-11-19T19:52:34.603Z,5.26
2016-11-19T19:53:33.876Z,5.3
2016-11-19T19:54:33.858Z,5.28
2016-11-19T19:55:33.845Z,5.28
2016-11-19T19:56:33.834Z,5.29
2016-11-19T19:57:33.831Z,5.29
2016-11-19T19:58:33.822Z,5.33
2016-11-19T19:59:33.825Z,5.28
2016-11-19T20:00:33.815Z,5.35
2016-11-19T20:01:33.811Z,5.3
2016-11-19T20:02:33.801Z,5.41
2016-11-19T20:03:33.791Z,5.39
2016-11-19T20:04:33.790Z,5.41
2016-11-19T20:05:34.036Z,5.36
2016-11-19T20:06:33.792Z,5.43
2016-11-19T20:07:33.817Z,5.38
2016-11-19T20:08:33.767Z,5.41
2016-11-19T20:09:33.756Z,5.36
2016-11-19T20:10:33.747Z,5.39
2016-11-19T20:11:33.739Z,5.43
2016-11-19T20:12:33.743Z,5.38
2016-11-19T20:13:33.726Z,5.43
2016-11-19T20:14:33.719Z,5.38
2016-11-19T20:15:33.713Z,5.48
2016-11-19T20:16:33.710Z,5.46
2016-11-19T20:17:33.710Z,5.48
2016-11-19T20:18:33.688Z,5.5
2016-11-19T20:19:33.717Z,5.57
2016-11-19T20:20:33.689Z,5.61
2016-11-19T20:21:33.677Z,5.51
2016-11-19T20:22:33.665Z,5.54
2016-11-19T20:23:33.655Z,5.48
2016-11-19T20:24:33.977Z,5.5
2016-11-19T20:25:33.640Z,5.57
2016-11-19T20:26:33.633Z,5.62
2016-11-19T20:27:33.630Z,5.53
2016-11-19T20:28:33.623Z,5.59
2016-11-19T20:29:33.616Z,5.54
2016-11-19T20:30:33.604Z,5.5
2016-11-19T20:31:33.600Z,5.5
2016-11-19T20:32:33.752Z,5.53
2016-11-19T20:33:33.610Z,5.48
2016-11-19T20:34:33.580Z,5.56
2016-11-19T20:35:33.585Z,5.54
2016-11-19T20:36:33.600Z,5.47
2016-11-19T20:37:33.561Z,5.54
2016-11-19T20:38:33.868Z,5.57
2016-11-19T20:39:33.863Z,5.56
2016-11-19T20:40:33.544Z,5.56
2016-11-19T20:41:33.536Z,5.51
2016-11-19T20:42:33.777Z,5.47
2016-11-19T20:43:33.532Z,5.48
2016-11-19T20:44:33.843Z,5.51
2016-11-19T20:45:33.514Z,5.44
2016-11-19T20:46:33.745Z,5.44
2016-11-19T20:47:33.996Z,5.39
2016-11-19T20:48:33.489Z,5.43
2016-11-19T20:49:33.487Z,5.39
2016-11-19T20:50:33.478Z,5.36
2016-11-19T20:51:33.467Z,5.29
2016-11-19T20:52:33.470Z,5.33
2016-11-19T20:56:49.792Z,5.41
2016-11-19T20:57:19.823Z,5.28
2016-11-19T20:58:19.819Z,5.38
2016-11-19T20:59:19.820Z,5.38
2016-11-19T21:00:19.799Z,5.41
2016-11-19T21:01:20.092Z,5.43
2016-11-19T21:02:19.782Z,5.43
2016-11-19T21:03:19.822Z,5.33
2016-11-19T21:04:19.776Z,5.36
2016-11-19T21:10:12.405Z,5.41
2016-11-19T21:10:29.277Z,5.43
2016-11-19T21:11:29.248Z,5.46
2016-11-19T21:12:29.235Z,5.41
2016-11-19T21:13:29.240Z,5.33
2016-11-19T21:14:29.535Z,5.38
2016-11-19T21:15:29.215Z,5.43
2016-11-19T21:16:29.207Z,5.32
2016-11-19T21:17:29.219Z,5.29
2016-11-19T21:18:29.191Z,5.33
2016-11-19T21:19:29.190Z,5.43
2016-11-19T21:20:29.184Z,5.36
2016-11-19T21:21:29.173Z,5.38
2016-11-19T21:22:29.177Z,5.33
2016-11-19T21:23:29.184Z,5.41
2016-11-19T21:24:29.162Z,5.41
2016-11-19T21:40:40.524Z,5.41
2016-11-19T21:41:40.525Z,5.28
2016-11-19T21:42:55.393Z,5.32
2016-11-19T21:43:40.495Z,5.39
2016-11-19T21:51:44.525Z,5.29
2016-11-19T21:52:21.423Z,5.29
2016-11-19T21:53:21.426Z,5.3
2016-11-19T21:54:21.398Z,5.3
2016-11-19T21:55:21.396Z,5.23
2016-11-19T21:56:21.386Z,5.29
2016-11-19T21:57:21.384Z,5.3
2016-11-19T21:58:21.369Z,5.26
2016-11-19T21:59:21.675Z,5.23
2016-11-19T22:00:21.367Z,5.12
2016-11-19T22:01:21.360Z,5.14
2016-11-19T22:02:21.343Z,5.14
2016-11-19T22:03:21.336Z,5.12
2016-11-19T22:04:21.328Z,5.1
2016-11-19T22:05:21.334Z,5.1
2016-11-19T22:06:21.310Z,5.08
2016-11-19T22:07:21.827Z,5.08
2016-11-19T22:08:21.298Z,5.08
2016-11-19T22:09:21.611Z,5.08
2016-11-19T22:10:21.349Z,5.02
2016-11-19T22:11:21.280Z,5.05
2016-11-19T22:12:21.276Z,5.02
2016-11-19T22:13:21.261Z,5.1
2016-11-19T22:14:21.263Z,5.04
2016-11-19T22:15:21.531Z,5.14
2016-11-19T22:16:21.247Z,5.11
2016-11-19T22:23:02.467Z,5.12
2016-11-19T22:28:35.825Z,5.15
2016-11-19T22:29:03.433Z,5.15
2016-11-19T22:30:03.423Z,5.14
2016-11-19T22:31:03.413Z,5.14
2016-11-19T22:32:03.419Z,5.18
2016-11-19T22:33:03.405Z,5.26
2016-11-19T22:34:03.395Z,5.3
2016-11-19T22:35:03.391Z,5.25
2016-11-19T22:36:03.383Z,5.3
2016-11-19T22:37:03.373Z,5.32
2016-11-19T22:38:03.364Z,5.33
2016-11-19T22:39:03.368Z,5.38
2016-11-19T22:40:03.356Z,5.28
2016-11-19T22:41:03.358Z,5.32
2016-11-19T22:42:03.341Z,5.3
2016-11-19T22:43:03.341Z,5.29
2016-11-19T22:44:03.381Z,5.28
2016-11-19T22:45:03.355Z,5.26
2016-11-19T22:46:03.323Z,5.28
2016-11-19T22:47:03.316Z,5.29
2016-11-19T22:48:03.310Z,5.32
2016-11-19T22:49:03.292Z,5.3
2016-11-19T22:50:03.290Z,5.32
2016-11-19T22:51:03.281Z,5.35
2016-11-19T22:52:03.272Z,5.41
2016-11-19T22:53:03.283Z,5.36
2016-11-19T22:54:03.268Z,5.41
2016-11-19T22:55:03.250Z,5.38
2016-11-19T22:56:03.246Z,5.47
2016-11-19T22:57:03.235Z,5.46
2016-11-19T22:58:03.481Z,5.48
2016-11-19T22:59:03.473Z,5.53
2016-11-19T23:00:03.220Z,5.54
2016-11-19T23:01:03.211Z,5.57
2016-11-19T23:02:03.202Z,5.57
2016-11-19T23:03:03.195Z,5.51
2016-11-19T23:04:03.197Z,5.51
2016-11-19T23:05:03.186Z,5.48
2016-11-19T23:06:03.173Z,5.5
2016-11-19T23:07:03.164Z,5.36
2016-11-19T23:08:03.161Z,5.35
2016-11-19T23:09:03.161Z,5.36
2016-11-19T23:10:03.149Z,5.33
2016-11-19T23:11:03.148Z,5.29
2016-11-19T23:12:03.148Z,5.38
2016-11-19T23:13:03.126Z,5.32
2016-11-19T23:14:03.120Z,5.29
2016-11-19T23:15:03.153Z,5.35
2016-11-19T23:16:03.105Z,5.28
2016-11-19T23:17:03.095Z,5.3
2016-11-19T23:18:03.099Z,5.25
2016-11-19T23:19:03.088Z,5.28
2016-11-19T23:20:03.076Z,5.23
2016-11-19T23:21:03.389Z,5.33
2016-11-19T23:22:03.069Z,5.32
2016-11-19T23:23:03.054Z,5.25
2016-11-19T23:24:03.048Z,5.25
2016-11-19T23:25:03.044Z,5.28
2016-11-19T23:26:03.040Z,5.28
2016-11-19T23:27:03.026Z,5.28
2016-11-19T23:28:03.022Z,5.32
2016-11-19T23:29:03.333Z,5.33
2016-11-19T23:30:03.015Z,5.33
2016-11-19T23:31:03.013Z,5.41
2016-11-19T23:32:03.008Z,5.36
2016-11-19T23:33:04.228Z,5.38
2016-11-19T23:34:03.676Z,5.35
2016-11-19T23:35:02.978Z,5.48
2016-11-19T23:36:02.969Z,5.48
2016-11-19T23:37:02.961Z,5.57
2016-11-19T23:38:02.960Z,5.56
2016-11-19T23:39:02.948Z,5.44
2016-11-19T23:40:02.942Z,5.62
2016-11-19T23:41:02.945Z,5.66
2016-11-19T23:42:02.945Z,5.54
2016-11-19T23:43:02.921Z,5.62
2016-11-19T23:44:02.913Z,5.53
2016-11-19T23:45:03.149Z,5.56
2016-11-19T23:46:02.897Z,5.47
2016-11-19T23:47:02.892Z,5.57
2016-11-19T23:48:02.888Z,5.53
2016-11-19T23:49:02.887Z,5.48
2016-11-19T23:50:02.888Z,5.56
2016-11-19T23:51:02.870Z,5.51
2016-11-19T23:52:02.866Z,5.48
2016-11-19T23:53:02.857Z,5.51
2016-11-19T23:54:02.842Z,5.48
2016-11-19T23:55:02.839Z,5.44
2016-11-19T23:56:02.844Z,5.5
2016-11-19T23:57:02.824Z,5.47
2016-11-19T23:58:02.823Z,5.44
2016-11-19T23:59:02.825Z,5.5
